sensor_id;sensor_type;location;lat;lon;timestamp;P1;durP1;ratioP1;P2;durP2;ratioP2
22603;SDS011;11469;49.024;8.246;2022-09-12T00:00:04;10.95;;;5.15;;
22603;SDS011;11469;49.024;8.246;2022-09-12T00:02:30;18.17;;;5.07;;
22603;SDS011;11469;49.024;8.246;2022-09-12T00:04:56;12.70;;;5.38;;
22603;SDS011;11469;49.024;8.246;2022-09-12T00:07:21;20.85;;;6.10;;
22603;SDS011;11469;49.024;8.246;2022-09-12T00:09:46;10.63;;;5.10;;
22603;SDS011;11469;49.024;8.246;2022-09-12T00:12:12;15.63;;;5.57;;
22603;SDS011;11469;49.024;8.246;2022-09-12T00:14:37;14.43;;;5.43;;
22603;SDS011;11469;49.024;8.246;2022-09-12T00:17:03;19.10;;;6.07;;
22603;SDS011;11469;49.024;8.246;2022-09-12T00:19:29;8.00;;;4.70;;
22603;SDS011;11469;49.024;8.246;2022-09-12T00:21:54;14.02;;;4.88;;
22603;SDS011;11469;49.024;8.246;2022-09-12T00:24:20;16.40;;;5.55;;
22603;SDS011;11469;49.024;8.246;2022-09-12T00:26:46;9.73;;;5.07;;
22603;SDS011;11469;49.024;8.246;2022-09-12T00:29:19;8.98;;;4.90;;
22603;SDS011;11469;49.024;8.246;2022-09-12T00:31:46;10.60;;;5.27;;
22603;SDS011;11469;49.024;8.246;2022-09-12T00:34:11;10.70;;;5.78;;
22603;SDS011;11469;49.024;8.246;2022-09-12T00:36:38;7.60;;;5.43;;
22603;SDS011;11469;49.024;8.246;2022-09-12T00:39:04;12.77;;;5.90;;
22603;SDS011;11469;49.024;8.246;2022-09-12T00:41:34;24.05;;;7.30;;
22603;SDS011;11469;49.024;8.246;2022-09-12T00:44:48;7.72;;;5.50;;
22603;SDS011;11469;49.024;8.246;2022-09-12T00:46:48;12.80;;;5.95;;
22603;SDS011;11469;49.024;8.246;2022-09-12T00:49:18;10.18;;;6.65;;
22603;SDS011;11469;49.024;8.246;2022-09-12T00:51:48;13.65;;;6.88;;
22603;SDS011;11469;49.024;8.246;2022-09-12T00:54:21;10.98;;;5.90;;
22603;SDS011;11469;49.024;8.246;2022-09-12T00:56:52;15.32;;;7.03;;
22603;SDS011;11469;49.024;8.246;2022-09-12T00:59:24;10.18;;;6.47;;
22603;SDS011;11469;49.024;8.246;2022-09-12T01:01:56;13.95;;;6.72;;
22603;SDS011;11469;49.024;8.246;2022-09-12T01:04:22;11.23;;;7.15;;
22603;SDS011;11469;49.024;8.246;2022-09-12T01:06:50;8.15;;;5.80;;
22603;SDS011;11469;49.024;8.246;2022-09-12T01:09:19;15.18;;;6.65;;
22603;SDS011;11469;49.024;8.246;2022-09-12T01:11:47;10.05;;;5.68;;
22603;SDS011;11469;49.024;8.246;2022-09-12T01:14:15;12.93;;;5.40;;
22603;SDS011;11469;49.024;8.246;2022-09-12T01:16:42;11.73;;;6.00;;
22603;SDS011;11469;49.024;8.246;2022-09-12T01:27:38;12.25;;;6.13;;
22603;SDS011;11469;49.024;8.246;2022-09-12T01:38:45;13.88;;;5.93;;
22603;SDS011;11469;49.024;8.246;2022-09-12T01:46:30;13.02;;;6.05;;
22603;SDS011;11469;49.024;8.246;2022-09-12T01:49:24;16.20;;;6.00;;
22603;SDS011;11469;49.024;8.246;2022-09-12T01:52:03;14.75;;;6.28;;
22603;SDS011;11469;49.024;8.246;2022-09-12T01:55:11;12.60;;;5.70;;
22603;SDS011;11469;49.024;8.246;2022-09-12T01:57:56;12.93;;;5.55;;
22603;SDS011;11469;49.024;8.246;2022-09-12T02:00:23;18.65;;;6.45;;
22603;SDS011;11469;49.024;8.246;2022-09-12T02:02:54;18.10;;;6.50;;
22603;SDS011;11469;49.024;8.246;2022-09-12T02:05:31;10.20;;;6.10;;
22603;SDS011;11469;49.024;8.246;2022-09-12T02:10:55;12.77;;;6.40;;
22603;SDS011;11469;49.024;8.246;2022-09-12T02:13:32;22.23;;;7.45;;
22603;SDS011;11469;49.024;8.246;2022-09-12T02:16:50;10.32;;;7.25;;
22603;SDS011;11469;49.024;8.246;2022-09-12T02:18:54;15.77;;;7.40;;
22603;SDS011;11469;49.024;8.246;2022-09-12T02:21:24;16.83;;;8.40;;
22603;SDS011;11469;49.024;8.246;2022-09-12T02:23:53;19.40;;;8.27;;
22603;SDS011;11469;49.024;8.246;2022-09-12T02:26:24;18.33;;;8.13;;
22603;SDS011;11469;49.024;8.246;2022-09-12T02:28:55;16.00;;;8.02;;
22603;SDS011;11469;49.024;8.246;2022-09-12T02:39:44;13.13;;;8.80;;
22603;SDS011;11469;49.024;8.246;2022-09-12T02:42:10;20.95;;;9.10;;
22603;SDS011;11469;49.024;8.246;2022-09-12T02:44:36;17.25;;;9.23;;
22603;SDS011;11469;49.024;8.246;2022-09-12T02:47:06;14.27;;;8.45;;
22603;SDS011;11469;49.024;8.246;2022-09-12T02:49:43;18.88;;;10.20;;
22603;SDS011;11469;49.024;8.246;2022-09-12T02:52:08;17.48;;;10.45;;
22603;SDS011;11469;49.024;8.246;2022-09-12T02:54:34;12.80;;;9.27;;
22603;SDS011;11469;49.024;8.246;2022-09-12T02:57:01;17.73;;;10.38;;
22603;SDS011;11469;49.024;8.246;2022-09-12T02:59:27;27.50;;;11.85;;
22603;SDS011;11469;49.024;8.246;2022-09-12T03:01:56;20.63;;;10.60;;
22603;SDS011;11469;49.024;8.246;2022-09-12T03:10:39;23.67;;;11.20;;
22603;SDS011;11469;49.024;8.246;2022-09-12T03:18:39;20.13;;;11.50;;
22603;SDS011;11469;49.024;8.246;2022-09-12T03:26:54;27.23;;;13.13;;
22603;SDS011;11469;49.024;8.246;2022-09-12T03:29:20;24.83;;;14.43;;
22603;SDS011;11469;49.024;8.246;2022-09-12T03:31:52;23.58;;;14.40;;
22603;SDS011;11469;49.024;8.246;2022-09-12T03:34:20;28.13;;;13.98;;
22603;SDS011;11469;49.024;8.246;2022-09-12T03:36:47;20.13;;;14.05;;
22603;SDS011;11469;49.024;8.246;2022-09-12T03:39:13;18.00;;;12.68;;
22603;SDS011;11469;49.024;8.246;2022-09-12T03:41:39;24.10;;;13.73;;
22603;SDS011;11469;49.024;8.246;2022-09-12T03:44:05;29.80;;;14.13;;
22603;SDS011;11469;49.024;8.246;2022-09-12T03:46:30;29.63;;;14.32;;
22603;SDS011;11469;49.024;8.246;2022-09-12T03:48:55;27.85;;;15.18;;
22603;SDS011;11469;49.024;8.246;2022-09-12T03:51:21;21.95;;;14.25;;
22603;SDS011;11469;49.024;8.246;2022-09-12T03:53:46;23.52;;;13.80;;
22603;SDS011;11469;49.024;8.246;2022-09-12T03:56:12;22.50;;;13.25;;
22603;SDS011;11469;49.024;8.246;2022-09-12T03:58:38;17.80;;;12.25;;
22603;SDS011;11469;49.024;8.246;2022-09-12T04:01:08;26.10;;;14.07;;
22603;SDS011;11469;49.024;8.246;2022-09-12T04:03:37;20.27;;;12.57;;
22603;SDS011;11469;49.024;8.246;2022-09-12T04:06:06;20.50;;;13.45;;
22603;SDS011;11469;49.024;8.246;2022-09-12T04:08:34;23.85;;;14.05;;
22603;SDS011;11469;49.024;8.246;2022-09-12T04:11:07;26.77;;;14.68;;
22603;SDS011;11469;49.024;8.246;2022-09-12T04:13:35;26.90;;;13.57;;
22603;SDS011;11469;49.024;8.246;2022-09-12T04:16:01;18.77;;;13.27;;
22603;SDS011;11469;49.024;8.246;2022-09-12T04:18:28;18.17;;;13.60;;
22603;SDS011;11469;49.024;8.246;2022-09-12T04:20:54;29.52;;;15.25;;
22603;SDS011;11469;49.024;8.246;2022-09-12T04:23:19;25.73;;;15.65;;
22603;SDS011;11469;49.024;8.246;2022-09-12T04:25:52;20.58;;;14.13;;
22603;SDS011;11469;49.024;8.246;2022-09-12T04:28:19;31.77;;;14.53;;
22603;SDS011;11469;49.024;8.246;2022-09-12T04:30:44;23.98;;;16.45;;
22603;SDS011;11469;49.024;8.246;2022-09-12T04:33:09;19.65;;;15.23;;
22603;SDS011;11469;49.024;8.246;2022-09-12T04:35:35;26.80;;;15.57;;
22603;SDS011;11469;49.024;8.246;2022-09-12T04:38:00;34.30;;;16.58;;
22603;SDS011;11469;49.024;8.246;2022-09-12T04:40:27;21.50;;;15.40;;
22603;SDS011;11469;49.024;8.246;2022-09-12T04:42:53;26.05;;;15.40;;
22603;SDS011;11469;49.024;8.246;2022-09-12T04:45:20;27.13;;;16.98;;
22603;SDS011;11469;49.024;8.246;2022-09-12T04:47:45;24.77;;;15.60;;
22603;SDS011;11469;49.024;8.246;2022-09-12T04:50:11;26.52;;;14.82;;
22603;SDS011;11469;49.024;8.246;2022-09-12T04:52:36;23.50;;;15.65;;
22603;SDS011;11469;49.024;8.246;2022-09-12T04:55:02;29.40;;;16.80;;
22603;SDS011;11469;49.024;8.246;2022-09-12T04:57:27;24.40;;;17.05;;
22603;SDS011;11469;49.024;8.246;2022-09-12T04:59:52;31.17;;;17.60;;
22603;SDS011;11469;49.024;8.246;2022-09-12T05:02:18;32.78;;;17.75;;
22603;SDS011;11469;49.024;8.246;2022-09-12T05:04:43;41.03;;;17.95;;
22603;SDS011;11469;49.024;8.246;2022-09-12T05:07:10;26.63;;;17.48;;
22603;SDS011;11469;49.024;8.246;2022-09-12T05:09:36;26.15;;;16.65;;
22603;SDS011;11469;49.024;8.246;2022-09-12T05:12:01;31.48;;;18.25;;
22603;SDS011;11469;49.024;8.246;2022-09-12T05:14:27;27.85;;;18.95;;
22603;SDS011;11469;49.024;8.246;2022-09-12T05:16:52;28.75;;;17.70;;
22603;SDS011;11469;49.024;8.246;2022-09-12T05:19:20;25.85;;;17.63;;
22603;SDS011;11469;49.024;8.246;2022-09-12T05:21:45;28.33;;;18.90;;
22603;SDS011;11469;49.024;8.246;2022-09-12T05:24:11;27.88;;;17.63;;
22603;SDS011;11469;49.024;8.246;2022-09-12T05:26:36;35.97;;;22.42;;
22603;SDS011;11469;49.024;8.246;2022-09-12T05:29:02;35.85;;;18.30;;
22603;SDS011;11469;49.024;8.246;2022-09-12T05:31:28;31.27;;;17.88;;
22603;SDS011;11469;49.024;8.246;2022-09-12T05:33:54;26.48;;;16.52;;
22603;SDS011;11469;49.024;8.246;2022-09-12T05:36:24;30.85;;;18.23;;
22603;SDS011;11469;49.024;8.246;2022-09-12T05:38:53;34.78;;;18.17;;
22603;SDS011;11469;49.024;8.246;2022-09-12T05:41:20;27.10;;;16.70;;
22603;SDS011;11469;49.024;8.246;2022-09-12T05:43:51;28.17;;;18.77;;
22603;SDS011;11469;49.024;8.246;2022-09-12T05:46:19;26.33;;;18.58;;
22603;SDS011;11469;49.024;8.246;2022-09-12T05:48:46;28.58;;;18.55;;
22603;SDS011;11469;49.024;8.246;2022-09-12T05:51:16;28.92;;;18.58;;
22603;SDS011;11469;49.024;8.246;2022-09-12T05:53:49;32.05;;;19.58;;
22603;SDS011;11469;49.024;8.246;2022-09-12T05:56:17;27.90;;;18.38;;
22603;SDS011;11469;49.024;8.246;2022-09-12T05:58:46;32.85;;;20.67;;
22603;SDS011;11469;49.024;8.246;2022-09-12T06:01:13;38.58;;;20.73;;
22603;SDS011;11469;49.024;8.246;2022-09-12T06:03:47;33.75;;;20.30;;
22603;SDS011;11469;49.024;8.246;2022-09-12T06:06:16;28.33;;;19.40;;
22603;SDS011;11469;49.024;8.246;2022-09-12T06:08:43;37.10;;;19.95;;
22603;SDS011;11469;49.024;8.246;2022-09-12T06:11:12;34.65;;;22.25;;
22603;SDS011;11469;49.024;8.246;2022-09-12T06:13:39;35.28;;;21.95;;
22603;SDS011;11469;49.024;8.246;2022-09-12T06:16:10;35.90;;;22.50;;
22603;SDS011;11469;49.024;8.246;2022-09-12T06:18:37;35.78;;;21.50;;
22603;SDS011;11469;49.024;8.246;2022-09-12T06:23:30;25.30;;;16.92;;
22603;SDS011;11469;49.024;8.246;2022-09-12T06:25:56;25.60;;;15.60;;
22603;SDS011;11469;49.024;8.246;2022-09-12T06:28:22;20.52;;;14.93;;
22603;SDS011;11469;49.024;8.246;2022-09-12T06:30:47;23.88;;;15.15;;
22603;SDS011;11469;49.024;8.246;2022-09-12T06:33:13;21.98;;;14.50;;
22603;SDS011;11469;49.024;8.246;2022-09-12T06:35:39;26.67;;;14.15;;
22603;SDS011;11469;49.024;8.246;2022-09-12T06:38:04;23.67;;;15.07;;
22603;SDS011;11469;49.024;8.246;2022-09-12T06:40:30;29.38;;;14.80;;
22603;SDS011;11469;49.024;8.246;2022-09-12T06:42:56;19.75;;;14.73;;
22603;SDS011;11469;49.024;8.246;2022-09-12T06:45:22;19.70;;;13.73;;
22603;SDS011;11469;49.024;8.246;2022-09-12T06:47:47;19.60;;;13.82;;
22603;SDS011;11469;49.024;8.246;2022-09-12T06:50:13;26.65;;;14.45;;
22603;SDS011;11469;49.024;8.246;2022-09-12T06:52:38;21.63;;;14.80;;
22603;SDS011;11469;49.024;8.246;2022-09-12T06:55:04;18.92;;;15.00;;
22603;SDS011;11469;49.024;8.246;2022-09-12T06:57:30;26.67;;;15.80;;
22603;SDS011;11469;49.024;8.246;2022-09-12T06:59:56;22.75;;;14.98;;
22603;SDS011;11469;49.024;8.246;2022-09-12T07:02:22;21.33;;;15.45;;
22603;SDS011;11469;49.024;8.246;2022-09-12T07:04:49;20.10;;;14.55;;
22603;SDS011;11469;49.024;8.246;2022-09-12T07:07:15;21.70;;;14.63;;
22603;SDS011;11469;49.024;8.246;2022-09-12T07:09:41;23.40;;;14.90;;
22603;SDS011;11469;49.024;8.246;2022-09-12T07:12:07;21.33;;;14.70;;
22603;SDS011;11469;49.024;8.246;2022-09-12T07:14:32;21.17;;;14.35;;
22603;SDS011;11469;49.024;8.246;2022-09-12T07:16:58;19.02;;;13.07;;
22603;SDS011;11469;49.024;8.246;2022-09-12T07:19:23;21.27;;;13.98;;
22603;SDS011;11469;49.024;8.246;2022-09-12T07:21:49;25.65;;;13.70;;
22603;SDS011;11469;49.024;8.246;2022-09-12T07:24:14;23.00;;;14.70;;
22603;SDS011;11469;49.024;8.246;2022-09-12T07:26:40;19.90;;;13.85;;
22603;SDS011;11469;49.024;8.246;2022-09-12T07:29:06;20.65;;;15.07;;
22603;SDS011;11469;49.024;8.246;2022-09-12T07:31:34;20.48;;;14.38;;
22603;SDS011;11469;49.024;8.246;2022-09-12T07:34:00;21.08;;;13.85;;
22603;SDS011;11469;49.024;8.246;2022-09-12T07:36:30;21.83;;;13.27;;
22603;SDS011;11469;49.024;8.246;2022-09-12T07:38:56;17.30;;;13.27;;
22603;SDS011;11469;49.024;8.246;2022-09-12T07:41:26;19.27;;;14.02;;
22603;SDS011;11469;49.024;8.246;2022-09-12T07:43:54;17.20;;;12.93;;
22603;SDS011;11469;49.024;8.246;2022-09-12T07:46:20;19.35;;;14.00;;
22603;SDS011;11469;49.024;8.246;2022-09-12T07:48:53;20.75;;;13.70;;
22603;SDS011;11469;49.024;8.246;2022-09-12T07:51:20;21.92;;;12.23;;
22603;SDS011;11469;49.024;8.246;2022-09-12T07:53:46;15.15;;;11.50;;
22603;SDS011;11469;49.024;8.246;2022-09-12T07:56:13;18.27;;;12.27;;
22603;SDS011;11469;49.024;8.246;2022-09-12T07:58:41;24.73;;;12.18;;
22603;SDS011;11469;49.024;8.246;2022-09-12T08:01:09;18.10;;;11.95;;
22603;SDS011;11469;49.024;8.246;2022-09-12T08:03:37;16.95;;;11.82;;
22603;SDS011;11469;49.024;8.246;2022-09-12T08:06:05;20.85;;;11.32;;
22603;SDS011;11469;49.024;8.246;2022-09-12T08:08:32;13.15;;;9.57;;
22603;SDS011;11469;49.024;8.246;2022-09-12T08:10:59;22.92;;;10.90;;
22603;SDS011;11469;49.024;8.246;2022-09-12T08:13:26;15.18;;;10.43;;
22603;SDS011;11469;49.024;8.246;2022-09-12T08:16:04;19.88;;;10.05;;
22603;SDS011;11469;49.024;8.246;2022-09-12T08:18:33;13.07;;;9.50;;
22603;SDS011;11469;49.024;8.246;2022-09-12T08:21:01;15.93;;;10.32;;
22603;SDS011;11469;49.024;8.246;2022-09-12T08:23:31;19.00;;;9.88;;
22603;SDS011;11469;49.024;8.246;2022-09-12T08:25:58;19.15;;;10.50;;
22603;SDS011;11469;49.024;8.246;2022-09-12T08:28:26;17.27;;;10.52;;
22603;SDS011;11469;49.024;8.246;2022-09-12T08:30:52;14.30;;;9.98;;
22603;SDS011;11469;49.024;8.246;2022-09-12T08:33:19;16.45;;;10.63;;
22603;SDS011;11469;49.024;8.246;2022-09-12T08:35:45;12.98;;;9.68;;
22603;SDS011;11469;49.024;8.246;2022-09-12T08:38:11;13.85;;;9.90;;
22603;SDS011;11469;49.024;8.246;2022-09-12T08:40:53;11.85;;;8.55;;
22603;SDS011;11469;49.024;8.246;2022-09-12T08:46:26;11.02;;;8.55;;
22603;SDS011;11469;49.024;8.246;2022-09-12T08:49:00;11.80;;;8.27;;
22603;SDS011;11469;49.024;8.246;2022-09-12T08:51:27;11.05;;;8.38;;
22603;SDS011;11469;49.024;8.246;2022-09-12T08:53:57;14.10;;;8.25;;
22603;SDS011;11469;49.024;8.246;2022-09-12T08:56:25;16.65;;;8.02;;
22603;SDS011;11469;49.024;8.246;2022-09-12T08:58:53;12.55;;;8.45;;
22603;SDS011;11469;49.024;8.246;2022-09-12T09:16:08;8.93;;;6.93;;
22603;SDS011;11469;49.024;8.246;2022-09-12T09:18:50;17.83;;;7.28;;
22603;SDS011;11469;49.024;8.246;2022-09-12T09:21:29;12.07;;;7.07;;
22603;SDS011;11469;49.024;8.246;2022-09-12T09:24:03;9.88;;;6.75;;
22603;SDS011;11469;49.024;8.246;2022-09-12T09:29:04;11.20;;;7.32;;
22603;SDS011;11469;49.024;8.246;2022-09-12T09:31:38;9.57;;;7.22;;
22603;SDS011;11469;49.024;8.246;2022-09-12T09:34:15;14.20;;;7.25;;
22603;SDS011;11469;49.024;8.246;2022-09-12T09:36:48;9.27;;;6.50;;
22603;SDS011;11469;49.024;8.246;2022-09-12T09:44:35;6.50;;;5.00;;
22603;SDS011;11469;49.024;8.246;2022-09-12T09:47:01;7.40;;;5.65;;
22603;SDS011;11469;49.024;8.246;2022-09-12T09:49:27;15.63;;;5.90;;
22603;SDS011;11469;49.024;8.246;2022-09-12T09:51:56;7.85;;;5.40;;
22603;SDS011;11469;49.024;8.246;2022-09-12T09:54:24;6.28;;;5.28;;
22603;SDS011;11469;49.024;8.246;2022-09-12T09:56:54;13.02;;;5.93;;
22603;SDS011;11469;49.024;8.246;2022-09-12T09:59:27;6.30;;;4.75;;
22603;SDS011;11469;49.024;8.246;2022-09-12T10:04:39;7.65;;;4.78;;
22603;SDS011;11469;49.024;8.246;2022-09-12T10:07:17;7.47;;;5.60;;
22603;SDS011;11469;49.024;8.246;2022-09-12T10:10:02;6.07;;;4.70;;
22603;SDS011;11469;49.024;8.246;2022-09-12T10:12:28;7.07;;;4.63;;
22603;SDS011;11469;49.024;8.246;2022-09-12T10:14:58;12.48;;;5.10;;
22603;SDS011;11469;49.024;8.246;2022-09-12T10:17:29;8.55;;;4.05;;
22603;SDS011;11469;49.024;8.246;2022-09-12T10:25:46;7.72;;;3.95;;
22603;SDS011;11469;49.024;8.246;2022-09-12T10:28:24;8.95;;;4.18;;
22603;SDS011;11469;49.024;8.246;2022-09-12T10:30:58;6.55;;;4.32;;
22603;SDS011;11469;49.024;8.246;2022-09-12T10:33:26;6.57;;;4.40;;
22603;SDS011;11469;49.024;8.246;2022-09-12T10:35:53;8.43;;;4.30;;
22603;SDS011;11469;49.024;8.246;2022-09-12T10:40:54;9.82;;;3.63;;
22603;SDS011;11469;49.024;8.246;2022-09-12T10:43:33;7.18;;;4.05;;
22603;SDS011;11469;49.024;8.246;2022-09-12T10:48:39;7.00;;;3.30;;
22603;SDS011;11469;49.024;8.246;2022-09-12T10:51:10;4.47;;;2.80;;
22603;SDS011;11469;49.024;8.246;2022-09-12T10:54:11;4.23;;;2.97;;
22603;SDS011;11469;49.024;8.246;2022-09-12T11:02:13;4.20;;;2.50;;
22603;SDS011;11469;49.024;8.246;2022-09-12T11:04:52;4.70;;;2.80;;
22603;SDS011;11469;49.024;8.246;2022-09-12T11:07:42;6.32;;;2.65;;
22603;SDS011;11469;49.024;8.246;2022-09-12T11:12:49;9.20;;;2.75;;
22603;SDS011;11469;49.024;8.246;2022-09-12T11:17:56;10.48;;;2.88;;
22603;SDS011;11469;49.024;8.246;2022-09-12T11:34:16;7.45;;;2.33;;
22603;SDS011;11469;49.024;8.246;2022-09-12T11:39:58;3.72;;;2.25;;
22603;SDS011;11469;49.024;8.246;2022-09-12T11:42:44;5.80;;;2.08;;
22603;SDS011;11469;49.024;8.246;2022-09-12T11:45:18;10.57;;;2.05;;
22603;SDS011;11469;49.024;8.246;2022-09-12T11:47:51;3.38;;;1.92;;
22603;SDS011;11469;49.024;8.246;2022-09-12T11:50:22;2.58;;;1.75;;
22603;SDS011;11469;49.024;8.246;2022-09-12T11:52:52;2.92;;;1.70;;
22603;SDS011;11469;49.024;8.246;2022-09-12T11:55:23;4.18;;;2.05;;
22603;SDS011;11469;49.024;8.246;2022-09-12T11:57:57;2.85;;;1.80;;
22603;SDS011;11469;49.024;8.246;2022-09-12T12:00:30;4.75;;;2.00;;
22603;SDS011;11469;49.024;8.246;2022-09-12T12:05:44;3.65;;;2.25;;
22603;SDS011;11469;49.024;8.246;2022-09-12T12:08:22;5.00;;;1.85;;
22603;SDS011;11469;49.024;8.246;2022-09-12T12:10:50;6.43;;;2.17;;
22603;SDS011;11469;49.024;8.246;2022-09-12T12:16:13;3.58;;;1.83;;
22603;SDS011;11469;49.024;8.246;2022-09-12T12:18:58;3.92;;;1.98;;
22603;SDS011;11469;49.024;8.246;2022-09-12T12:26:54;4.25;;;2.47;;
22603;SDS011;11469;49.024;8.246;2022-09-12T12:44:55;7.30;;;2.08;;
22603;SDS011;11469;49.024;8.246;2022-09-12T12:47:21;3.88;;;1.80;;
22603;SDS011;11469;49.024;8.246;2022-09-12T12:49:56;3.63;;;1.80;;
22603;SDS011;11469;49.024;8.246;2022-09-12T12:54:54;2.63;;;1.60;;
22603;SDS011;11469;49.024;8.246;2022-09-12T12:59:52;5.15;;;2.20;;
22603;SDS011;11469;49.024;8.246;2022-09-12T13:04:55;2.50;;;1.63;;
22603;SDS011;11469;49.024;8.246;2022-09-12T13:07:31;2.08;;;1.65;;
22603;SDS011;11469;49.024;8.246;2022-09-12T13:10:00;2.28;;;1.85;;
22603;SDS011;11469;49.024;8.246;2022-09-12T13:12:34;2.33;;;1.58;;
22603;SDS011;11469;49.024;8.246;2022-09-12T13:15:50;3.40;;;1.63;;
22603;SDS011;11469;49.024;8.246;2022-09-12T13:21:07;3.47;;;1.58;;
22603;SDS011;11469;49.024;8.246;2022-09-12T13:23:33;2.58;;;1.63;;
22603;SDS011;11469;49.024;8.246;2022-09-12T13:25:59;2.63;;;1.58;;
22603;SDS011;11469;49.024;8.246;2022-09-12T13:28:26;4.13;;;2.00;;
22603;SDS011;11469;49.024;8.246;2022-09-12T13:36:33;3.53;;;1.88;;
22603;SDS011;11469;49.024;8.246;2022-09-12T13:45:21;3.40;;;1.88;;
22603;SDS011;11469;49.024;8.246;2022-09-12T13:47:54;4.30;;;1.88;;
22603;SDS011;11469;49.024;8.246;2022-09-12T13:50:24;3.67;;;2.17;;
22603;SDS011;11469;49.024;8.246;2022-09-12T13:52:56;3.78;;;2.05;;
22603;SDS011;11469;49.024;8.246;2022-09-12T13:55:28;5.03;;;1.52;;
22603;SDS011;11469;49.024;8.246;2022-09-12T13:58:03;4.90;;;1.90;;
22603;SDS011;11469;49.024;8.246;2022-09-12T14:02:59;1.85;;;1.48;;
22603;SDS011;11469;49.024;8.246;2022-09-12T14:05:45;2.85;;;1.70;;
22603;SDS011;11469;49.024;8.246;2022-09-12T14:08:19;4.90;;;1.40;;
22603;SDS011;11469;49.024;8.246;2022-09-12T14:10:47;5.97;;;1.73;;
22603;SDS011;11469;49.024;8.246;2022-09-12T14:13:18;6.40;;;1.38;;
22603;SDS011;11469;49.024;8.246;2022-09-12T14:15:46;3.15;;;1.73;;
22603;SDS011;11469;49.024;8.246;2022-09-12T14:18:27;2.92;;;1.60;;
22603;SDS011;11469;49.024;8.246;2022-09-12T14:20:54;3.22;;;1.50;;
22603;SDS011;11469;49.024;8.246;2022-09-12T14:23:28;5.07;;;1.95;;
22603;SDS011;11469;49.024;8.246;2022-09-12T14:25:57;4.63;;;1.42;;
22603;SDS011;11469;49.024;8.246;2022-09-12T14:28:27;2.13;;;1.73;;
22603;SDS011;11469;49.024;8.246;2022-09-12T14:31:01;2.88;;;1.67;;
22603;SDS011;11469;49.024;8.246;2022-09-12T14:33:31;2.47;;;1.85;;
22603;SDS011;11469;49.024;8.246;2022-09-12T14:38:45;8.60;;;1.63;;
22603;SDS011;11469;49.024;8.246;2022-09-12T14:41:20;2.72;;;1.65;;
22603;SDS011;11469;49.024;8.246;2022-09-12T14:44:07;3.33;;;1.73;;
22603;SDS011;11469;49.024;8.246;2022-09-12T14:46:50;4.38;;;1.70;;
22603;SDS011;11469;49.024;8.246;2022-09-12T14:49:20;2.72;;;1.80;;
22603;SDS011;11469;49.024;8.246;2022-09-12T14:51:55;5.70;;;1.95;;
22603;SDS011;11469;49.024;8.246;2022-09-12T14:56:52;5.40;;;1.88;;
22603;SDS011;11469;49.024;8.246;2022-09-12T14:59:30;2.50;;;1.95;;
22603;SDS011;11469;49.024;8.246;2022-09-12T15:04:47;2.85;;;1.25;;
22603;SDS011;11469;49.024;8.246;2022-09-12T15:09:57;3.03;;;1.75;;
22603;SDS011;11469;49.024;8.246;2022-09-12T15:12:24;4.13;;;1.80;;
22603;SDS011;11469;49.024;8.246;2022-09-12T15:14:50;2.90;;;1.60;;
22603;SDS011;11469;49.024;8.246;2022-09-12T15:17:15;2.50;;;1.50;;
22603;SDS011;11469;49.024;8.246;2022-09-12T15:19:41;3.53;;;1.77;;
22603;SDS011;11469;49.024;8.246;2022-09-12T15:22:09;3.78;;;1.65;;
22603;SDS011;11469;49.024;8.246;2022-09-12T15:24:36;1.88;;;1.17;;
22603;SDS011;11469;49.024;8.246;2022-09-12T15:27:12;2.25;;;1.60;;
22603;SDS011;11469;49.024;8.246;2022-09-12T15:29:38;10.23;;;1.63;;
22603;SDS011;11469;49.024;8.246;2022-09-12T15:32:03;2.15;;;1.42;;
22603;SDS011;11469;49.024;8.246;2022-09-12T15:34:30;3.13;;;1.42;;
22603;SDS011;11469;49.024;8.246;2022-09-12T15:36:56;3.50;;;1.25;;
22603;SDS011;11469;49.024;8.246;2022-09-12T15:39:21;4.63;;;1.73;;
22603;SDS011;11469;49.024;8.246;2022-09-12T15:41:47;3.75;;;1.27;;
22603;SDS011;11469;49.024;8.246;2022-09-12T15:44:12;4.10;;;1.70;;
22603;SDS011;11469;49.024;8.246;2022-09-12T15:46:38;4.75;;;1.40;;
22603;SDS011;11469;49.024;8.246;2022-09-12T15:49:04;2.60;;;1.40;;
22603;SDS011;11469;49.024;8.246;2022-09-12T15:51:29;3.75;;;1.50;;
22603;SDS011;11469;49.024;8.246;2022-09-12T15:53:54;2.00;;;1.20;;
22603;SDS011;11469;49.024;8.246;2022-09-12T15:56:20;6.40;;;1.42;;
22603;SDS011;11469;49.024;8.246;2022-09-12T15:58:47;2.45;;;1.65;;
22603;SDS011;11469;49.024;8.246;2022-09-12T16:01:14;2.50;;;1.30;;
22603;SDS011;11469;49.024;8.246;2022-09-12T16:03:40;2.22;;;1.48;;
22603;SDS011;11469;49.024;8.246;2022-09-12T16:06:06;2.47;;;1.85;;
22603;SDS011;11469;49.024;8.246;2022-09-12T16:08:33;2.97;;;1.42;;
22603;SDS011;11469;49.024;8.246;2022-09-12T16:11:04;2.85;;;1.77;;
22603;SDS011;11469;49.024;8.246;2022-09-12T16:13:32;3.33;;;1.67;;
22603;SDS011;11469;49.024;8.246;2022-09-12T16:15:58;2.30;;;1.48;;
22603;SDS011;11469;49.024;8.246;2022-09-12T16:18:25;4.93;;;1.95;;
22603;SDS011;11469;49.024;8.246;2022-09-12T16:20:55;3.45;;;1.55;;
22603;SDS011;11469;49.024;8.246;2022-09-12T16:23:21;3.03;;;1.80;;
22603;SDS011;11469;49.024;8.246;2022-09-12T16:25:57;2.40;;;1.50;;
22603;SDS011;11469;49.024;8.246;2022-09-12T16:28:23;3.75;;;1.40;;
22603;SDS011;11469;49.024;8.246;2022-09-12T16:30:59;8.95;;;1.67;;
22603;SDS011;11469;49.024;8.246;2022-09-12T16:33:27;5.30;;;2.08;;
22603;SDS011;11469;49.024;8.246;2022-09-12T16:36:03;6.32;;;2.85;;
22603;SDS011;11469;49.024;8.246;2022-09-12T16:38:32;5.32;;;2.13;;
22603;SDS011;11469;49.024;8.246;2022-09-12T16:41:03;4.07;;;2.03;;
22603;SDS011;11469;49.024;8.246;2022-09-12T16:43:31;29.42;;;2.67;;
22603;SDS011;11469;49.024;8.246;2022-09-12T16:48:27;15.23;;;2.45;;
22603;SDS011;11469;49.024;8.246;2022-09-12T16:50:56;10.15;;;1.95;;
22603;SDS011;11469;49.024;8.246;2022-09-12T16:53:22;3.45;;;1.80;;
22603;SDS011;11469;49.024;8.246;2022-09-12T16:55:48;18.30;;;2.40;;
22603;SDS011;11469;49.024;8.246;2022-09-12T16:58:15;12.05;;;2.15;;
22603;SDS011;11469;49.024;8.246;2022-09-12T17:00:40;16.10;;;2.45;;
22603;SDS011;11469;49.024;8.246;2022-09-12T17:03:06;25.02;;;6.80;;
22603;SDS011;11469;49.024;8.246;2022-09-12T17:05:31;23.50;;;2.90;;
22603;SDS011;11469;49.024;8.246;2022-09-12T17:07:57;16.73;;;2.70;;
22603;SDS011;11469;49.024;8.246;2022-09-12T17:10:22;45.58;;;3.83;;
22603;SDS011;11469;49.024;8.246;2022-09-12T17:12:47;42.25;;;3.67;;
22603;SDS011;11469;49.024;8.246;2022-09-12T17:15:14;51.05;;;3.13;;
22603;SDS011;11469;49.024;8.246;2022-09-12T17:17:40;100.82;;;6.13;;
22603;SDS011;11469;49.024;8.246;2022-09-12T17:20:05;114.10;;;6.45;;
22603;SDS011;11469;49.024;8.246;2022-09-12T17:22:31;106.63;;;6.65;;
22603;SDS011;11469;49.024;8.246;2022-09-12T17:24:57;57.38;;;4.55;;
22603;SDS011;11469;49.024;8.246;2022-09-12T17:27:22;35.45;;;3.75;;
22603;SDS011;11469;49.024;8.246;2022-09-12T17:29:48;18.63;;;2.03;;
22603;SDS011;11469;49.024;8.246;2022-09-12T17:32:13;13.82;;;2.22;;
22603;SDS011;11469;49.024;8.246;2022-09-12T17:34:39;17.30;;;2.80;;
22603;SDS011;11469;49.024;8.246;2022-09-12T17:37:04;5.43;;;2.00;;
22603;SDS011;11469;49.024;8.246;2022-09-12T17:39:29;8.70;;;2.33;;
22603;SDS011;11469;49.024;8.246;2022-09-12T17:41:55;5.97;;;2.20;;
22603;SDS011;11469;49.024;8.246;2022-09-12T17:44:21;9.35;;;2.33;;
22603;SDS011;11469;49.024;8.246;2022-09-12T17:46:48;6.45;;;2.65;;
22603;SDS011;11469;49.024;8.246;2022-09-12T17:49:14;5.32;;;1.95;;
22603;SDS011;11469;49.024;8.246;2022-09-12T17:51:42;6.28;;;2.08;;